createdAt,value
2019-04-14T00:01:11.009Z,28.65
2019-04-14T00:03:54.359Z,27.98
2019-04-14T00:06:24.403Z,28.20
2019-04-14T00:08:54.358Z,27.05
2019-04-14T00:11:23.955Z,27.70
2019-04-14T00:13:54.459Z,30.48
2019-04-14T00:16:24.899Z,26.20
2019-04-14T00:18:55.456Z,30.88
2019-04-14T00:21:26.002Z,28.80
2019-04-14T00:23:56.556Z,28.70
2019-04-14T00:26:29.296Z,30.68
2019-04-14T00:29:00.112Z,28.77
2019-04-14T00:31:30.718Z,28.47
2019-04-14T00:34:02.863Z,28.20
2019-04-14T00:36:37.242Z,25.65
2019-04-14T00:39:09.599Z,29.18
2019-04-14T00:42:02.115Z,25.72
2019-04-14T00:44:41.023Z,27.07
2019-04-14T00:47:22.192Z,29.30
2019-04-14T00:49:51.559Z,26.25
2019-04-14T00:52:21.437Z,29.15
2019-04-14T00:54:50.764Z,29.40
2019-04-14T00:57:20.187Z,30.50
2019-04-14T00:59:50.787Z,30.35
2019-04-14T01:02:21.071Z,27.98
2019-04-14T01:04:51.355Z,29.42
2019-04-14T01:07:21.616Z,29.35
2019-04-14T01:09:51.149Z,30.65
2019-04-14T01:12:21.141Z,31.50
2019-04-14T01:14:51.775Z,33.35
2019-04-14T01:17:22.032Z,34.03
2019-04-14T01:19:52.680Z,33.18
2019-04-14T01:22:22.784Z,34.55
2019-04-14T01:24:53.301Z,36.03
2019-04-14T01:27:23.429Z,36.55
2019-04-14T01:29:53.813Z,36.58
2019-04-14T01:32:24.088Z,38.88
2019-04-14T01:34:54.378Z,37.60
2019-04-14T01:37:24.779Z,40.28
2019-04-14T01:39:54.559Z,40.65
2019-04-14T01:42:24.557Z,36.10
2019-04-14T01:44:54.686Z,37.05
2019-04-14T01:47:24.870Z,38.90
2019-04-14T01:49:55.173Z,36.00
2019-04-14T01:52:38.527Z,38.17
2019-04-14T01:55:22.329Z,36.95
2019-04-14T01:58:05.432Z,38.60
2019-04-14T02:00:42.464Z,36.68
2019-04-14T02:03:12.776Z,39.18
2019-04-14T02:05:43.156Z,38.85
2019-04-14T02:08:13.443Z,38.90
2019-04-14T02:10:43.481Z,38.67
2019-04-14T02:13:13.556Z,40.10
2019-04-14T02:15:44.165Z,37.67
2019-04-14T02:18:14.237Z,39.90
2019-04-14T02:20:44.707Z,38.48
2019-04-14T02:23:14.698Z,40.48
2019-04-14T02:25:45.060Z,40.25
2019-04-14T02:28:15.507Z,39.18
2019-04-14T02:30:54.310Z,39.58
2019-04-14T02:38:49.029Z,39.65
2019-04-14T02:41:20.986Z,39.35
2019-04-14T02:43:54.528Z,38.23
2019-04-14T02:48:50.827Z,39.55
2019-04-14T02:51:19.409Z,40.05
2019-04-14T02:53:59.304Z,38.75
2019-04-14T02:56:25.454Z,37.67
2019-04-14T02:59:05.600Z,39.03
2019-04-14T03:02:20.176Z,39.38
2019-04-14T03:03:48.885Z,38.13
2019-04-14T03:06:25.996Z,40.78
2019-04-14T03:16:37.564Z,37.70
2019-04-14T03:21:34.636Z,39.73
2019-04-14T03:24:27.269Z,37.88
2019-04-14T03:26:59.442Z,36.23
2019-04-14T03:29:32.434Z,36.93
2019-04-14T03:32:11.472Z,35.45
2019-04-14T03:37:34.591Z,36.17
2019-04-14T03:39:44.232Z,38.58
2019-04-14T03:42:12.197Z,36.13
2019-04-14T03:44:41.524Z,36.88
2019-04-14T03:47:13.622Z,37.55
2019-04-14T03:49:54.439Z,36.90
2019-04-14T03:52:04.095Z,36.00
2019-04-14T03:54:38.406Z,35.38
2019-04-14T03:56:49.538Z,35.43
2019-04-14T03:59:19.651Z,33.08
2019-04-14T04:01:50.059Z,35.05
2019-04-14T04:04:20.459Z,34.60
2019-04-14T04:06:51.003Z,34.27
2019-04-14T04:09:22.111Z,36.28
2019-04-14T04:11:52.001Z,35.80
2019-04-14T04:14:22.430Z,34.60
2019-04-14T04:16:57.291Z,33.40
2019-04-14T04:19:31.583Z,35.48
2019-04-14T04:22:21.556Z,34.58
2019-04-14T04:24:52.528Z,34.45
2019-04-14T04:27:26.657Z,32.75
2019-04-14T04:29:57.615Z,33.10
2019-04-14T04:32:44.841Z,33.55
2019-04-14T04:35:19.645Z,34.27
2019-04-14T04:38:07.341Z,33.92
2019-04-14T04:40:37.598Z,34.75
2019-04-14T04:43:07.932Z,33.33
2019-04-14T04:45:38.665Z,33.20
2019-04-14T04:48:08.893Z,36.20
2019-04-14T04:50:38.865Z,35.40
2019-04-14T04:53:09.057Z,35.65
2019-04-14T04:55:39.489Z,34.48
2019-04-14T04:58:10.051Z,35.05
2019-04-14T05:00:39.525Z,31.48
2019-04-14T05:03:09.982Z,30.75
2019-04-14T05:06:18.777Z,31.93
2019-04-14T05:08:48.627Z,31.73
2019-04-14T05:11:36.118Z,33.15
2019-04-14T05:14:07.112Z,33.15
2019-04-14T05:16:36.741Z,30.23
2019-04-14T05:19:18.475Z,31.48
2019-04-14T05:21:38.697Z,32.13
2019-04-14T05:24:09.266Z,32.65
2019-04-14T05:26:39.463Z,30.68
2019-04-14T05:29:09.895Z,29.80
2019-04-14T05:31:40.369Z,29.63
2019-04-14T05:34:10.750Z,28.40
2019-04-14T05:36:41.144Z,29.12
2019-04-14T05:39:11.381Z,25.97
2019-04-14T05:41:55.001Z,28.35
2019-04-14T05:44:12.390Z,29.20
2019-04-14T05:46:42.477Z,27.27
2019-04-14T05:49:24.554Z,24.90
2019-04-14T05:51:43.724Z,29.75
2019-04-14T05:54:14.134Z,26.62
2019-04-14T05:56:44.677Z,26.73
2019-04-14T05:59:15.894Z,27.87
2019-04-14T06:01:46.469Z,26.45
2019-04-14T06:04:15.851Z,24.75
2019-04-14T06:06:45.420Z,24.70
2019-04-14T06:09:14.723Z,24.98
2019-04-14T06:11:44.028Z,23.87
2019-04-14T06:14:13.330Z,26.87
2019-04-14T06:16:42.921Z,24.37
2019-04-14T06:19:12.218Z,27.48
2019-04-14T06:21:41.499Z,24.37
2019-04-14T06:24:10.802Z,25.17
2019-04-14T06:26:40.096Z,23.75
2019-04-14T06:29:09.633Z,25.20
2019-04-14T06:31:57.120Z,23.30
2019-04-14T06:34:34.446Z,21.87
2019-04-14T06:37:08.166Z,23.00
2019-04-14T06:39:48.121Z,23.95
2019-04-14T06:42:17.402Z,22.95
2019-04-14T06:44:46.689Z,23.95
2019-04-14T06:47:15.991Z,26.17
2019-04-14T06:49:49.264Z,23.35
2019-04-14T06:52:16.551Z,23.80
2019-04-14T06:54:45.836Z,22.75
2019-04-14T06:57:15.139Z,22.93
2019-04-14T06:59:44.426Z,22.60
2019-04-14T07:02:13.874Z,22.70
2019-04-14T07:04:43.171Z,21.82
2019-04-14T07:07:12.464Z,22.48
2019-04-14T07:09:41.768Z,22.25
2019-04-14T07:12:11.158Z,22.22
2019-04-14T07:14:40.530Z,21.55
2019-04-14T07:17:09.843Z,22.42
2019-04-14T07:19:39.135Z,22.10
2019-04-14T07:22:08.674Z,20.65
2019-04-14T07:24:38.288Z,21.80
2019-04-14T07:27:07.570Z,19.50
2019-04-14T07:29:38.509Z,18.85
2019-04-14T07:32:12.645Z,19.15
2019-04-14T07:34:55.419Z,17.15
2019-04-14T07:37:32.144Z,19.05
2019-04-14T07:40:03.096Z,18.48
2019-04-14T07:42:34.032Z,18.17
2019-04-14T07:45:05.023Z,17.20
2019-04-14T07:47:38.967Z,17.80
2019-04-14T07:50:26.799Z,18.77
2019-04-14T07:53:07.049Z,18.07
2019-04-14T07:55:50.204Z,16.97
2019-04-14T07:58:30.744Z,18.30
2019-04-14T08:01:01.672Z,17.85
2019-04-14T08:03:38.802Z,16.82
2019-04-14T08:06:08.098Z,17.62
2019-04-14T08:08:37.443Z,17.85
2019-04-14T08:11:06.743Z,17.02
2019-04-14T08:13:45.415Z,17.02
2019-04-14T08:16:14.993Z,16.45
2019-04-14T08:18:44.511Z,15.75
2019-04-14T08:21:14.109Z,17.25
2019-04-14T08:23:43.406Z,17.42
2019-04-14T08:26:12.714Z,16.02
2019-04-14T08:28:42.248Z,17.52
2019-04-14T08:31:11.812Z,15.98
2019-04-14T08:33:41.172Z,14.53
2019-04-14T08:36:10.479Z,16.00
2019-04-14T08:38:40.028Z,15.15
2019-04-14T08:41:09.634Z,15.58
2019-04-14T08:43:55.918Z,15.15
2019-04-14T08:46:26.920Z,17.15
2019-04-14T08:48:57.832Z,16.27
2019-04-14T08:51:28.785Z,16.62
2019-04-14T08:54:02.639Z,16.57
2019-04-14T08:56:50.070Z,15.60
2019-04-14T08:59:21.000Z,15.13
2019-04-14T09:01:54.628Z,16.35
2019-04-14T09:04:40.866Z,15.60
2019-04-14T09:07:14.837Z,17.70
2019-04-14T09:09:57.852Z,16.50
2019-04-14T09:12:29.112Z,15.38
2019-04-14T09:14:58.435Z,16.30
2019-04-14T09:17:29.859Z,16.23
2019-04-14T09:19:59.467Z,15.93
2019-04-14T09:22:28.759Z,15.88
2019-04-14T09:24:58.073Z,15.65
2019-04-14T09:27:27.359Z,16.82
2019-04-14T09:29:56.967Z,15.45
2019-04-14T09:32:27.502Z,16.23
2019-04-14T09:34:56.820Z,15.65
2019-04-14T09:37:26.129Z,16.35
2019-04-14T09:39:55.660Z,16.75
2019-04-14T09:42:24.969Z,17.20
2019-04-14T09:44:54.255Z,13.55
2019-04-14T09:47:23.567Z,14.55
2019-04-14T09:49:53.221Z,15.03
2019-04-14T09:52:23.042Z,13.40
2019-04-14T09:54:52.327Z,14.78
2019-04-14T09:57:21.627Z,15.20
2019-04-14T09:59:50.916Z,12.93
2019-04-14T10:02:20.442Z,14.10
2019-04-14T10:04:49.785Z,14.45
2019-04-14T10:07:19.121Z,14.18
2019-04-14T10:09:48.684Z,15.15
2019-04-14T10:12:18.074Z,14.05
2019-04-14T10:14:47.361Z,13.10
2019-04-14T10:17:16.704Z,13.95
2019-04-14T10:19:46.012Z,15.27
2019-04-14T10:22:15.290Z,14.60
2019-04-14T10:24:45.327Z,13.45
2019-04-14T10:27:14.640Z,13.72
2019-04-14T10:29:43.956Z,14.60
2019-04-14T10:32:13.243Z,14.43
2019-04-14T10:34:42.544Z,14.55
2019-04-14T10:37:11.871Z,15.70
2019-04-14T10:39:41.160Z,14.23
2019-04-14T10:42:10.558Z,13.65
2019-04-14T10:44:40.106Z,14.55
2019-04-14T10:47:09.391Z,13.70
2019-04-14T10:49:39.002Z,13.83
2019-04-14T10:52:08.444Z,12.85
2019-04-14T10:54:37.723Z,12.68
2019-04-14T10:57:07.024Z,12.75
2019-04-14T10:59:36.377Z,14.03
2019-04-14T11:02:05.975Z,13.08
2019-04-14T11:04:35.267Z,14.40
2019-04-14T11:07:06.282Z,13.65
2019-04-14T11:09:35.572Z,12.10
2019-04-14T11:12:05.784Z,11.33
2019-04-14T11:14:35.081Z,12.25
2019-04-14T11:17:04.366Z,13.60
2019-04-14T11:19:33.675Z,12.20
2019-04-14T11:22:02.967Z,12.03
2019-04-14T11:24:32.255Z,12.63
2019-04-14T11:27:01.585Z,13.35
2019-04-14T11:29:30.937Z,14.07
2019-04-14T11:32:01.865Z,13.53
2019-04-14T11:34:38.598Z,12.50
2019-04-14T11:37:12.260Z,13.08
2019-04-14T11:39:43.015Z,13.43
2019-04-14T11:42:12.286Z,12.70
2019-04-14T11:44:41.610Z,12.50
2019-04-14T11:47:11.052Z,13.00
2019-04-14T11:49:40.755Z,12.23
2019-04-14T11:52:10.043Z,12.98
2019-04-14T11:54:39.379Z,13.18
2019-04-14T11:57:08.659Z,13.80
2019-04-14T11:59:42.487Z,13.18
2019-04-14T12:02:22.246Z,13.75
2019-04-14T12:04:53.188Z,12.07
2019-04-14T12:07:26.806Z,13.32
2019-04-14T12:09:57.755Z,13.98
2019-04-14T12:12:27.062Z,13.25
2019-04-14T12:14:56.350Z,12.85
2019-04-14T12:17:25.646Z,13.15
2019-04-14T12:19:54.951Z,13.50
2019-04-14T12:22:24.244Z,12.65
2019-04-14T12:24:53.544Z,12.05
2019-04-14T12:27:22.834Z,14.28
2019-04-14T12:29:52.255Z,13.03
2019-04-14T12:32:22.317Z,12.88
2019-04-14T12:34:51.603Z,13.78
2019-04-14T12:37:20.898Z,12.70
2019-04-14T12:39:50.618Z,13.05
2019-04-14T12:42:26.983Z,12.43
2019-04-14T12:45:00.571Z,12.93
2019-04-14T12:47:40.646Z,13.13
2019-04-14T12:50:17.937Z,12.70
2019-04-14T12:52:47.253Z,12.95
2019-04-14T12:55:16.842Z,13.48
2019-04-14T12:57:49.282Z,12.63
2019-04-14T13:00:29.652Z,14.80
2019-04-14T13:02:59.186Z,13.10
2019-04-14T13:05:28.487Z,13.22
2019-04-14T13:07:57.782Z,12.80
2019-04-14T13:10:27.092Z,14.30
2019-04-14T13:12:56.382Z,13.28
2019-04-14T13:15:25.672Z,13.50
2019-04-14T13:17:55.199Z,14.13
2019-04-14T13:20:24.498Z,12.73
2019-04-14T13:22:53.786Z,13.10
2019-04-14T13:25:23.078Z,13.68
2019-04-14T13:27:52.598Z,12.37
2019-04-14T13:30:23.543Z,12.80
2019-04-14T13:32:52.831Z,13.62
2019-04-14T13:35:22.136Z,13.15
2019-04-14T13:37:51.420Z,13.40
2019-04-14T13:40:20.787Z,13.15
2019-04-14T13:42:50.342Z,13.30
2019-04-14T13:45:19.628Z,13.15
2019-04-14T13:47:49.254Z,13.80
2019-04-14T13:50:18.543Z,13.13
2019-04-14T13:52:47.830Z,13.32
2019-04-14T13:55:17.207Z,11.63
2019-04-14T13:57:46.766Z,12.88
2019-04-14T14:00:16.502Z,12.80
2019-04-14T14:02:45.794Z,11.70
2019-04-14T14:05:15.086Z,13.83
2019-04-14T14:07:44.400Z,13.13
2019-04-14T14:10:14.606Z,13.72
2019-04-14T14:12:48.458Z,12.53
2019-04-14T14:15:35.884Z,12.45
2019-04-14T14:18:23.147Z,12.40
2019-04-14T14:20:59.939Z,11.45
2019-04-14T14:23:33.932Z,10.75
2019-04-14T14:26:07.652Z,11.70
2019-04-14T14:28:38.666Z,12.43
2019-04-14T14:31:08.139Z,12.35
2019-04-14T14:33:37.434Z,11.80
2019-04-14T14:36:06.718Z,12.30
2019-04-14T14:38:36.019Z,11.95
2019-04-14T14:41:06.943Z,12.20
2019-04-14T14:43:36.243Z,11.00
2019-04-14T14:46:10.161Z,10.85
2019-04-14T14:48:41.101Z,10.93
2019-04-14T14:51:14.940Z,11.30
2019-04-14T14:53:44.244Z,11.60
2019-04-14T14:56:13.524Z,10.45
2019-04-14T14:58:45.266Z,10.70
2019-04-14T15:01:13.897Z,10.68
2019-04-14T15:03:43.179Z,11.35
2019-04-14T15:06:12.484Z,11.03
2019-04-14T15:08:41.767Z,10.40
2019-04-14T15:11:11.088Z,9.70
2019-04-14T15:13:40.370Z,9.58
2019-04-14T15:16:09.947Z,10.30
2019-04-14T15:18:39.547Z,9.40
2019-04-14T15:21:08.869Z,9.93
2019-04-14T15:23:38.222Z,9.58
2019-04-14T15:26:07.567Z,9.38
2019-04-14T15:28:36.906Z,8.73
2019-04-14T15:31:06.174Z,9.43
2019-04-14T15:33:35.502Z,9.98
2019-04-14T15:36:04.780Z,8.90
2019-04-14T15:38:34.380Z,9.15
2019-04-14T15:41:04.007Z,9.20
2019-04-14T15:43:33.583Z,9.38
2019-04-14T15:46:03.090Z,9.20
2019-04-14T15:48:32.415Z,9.73
2019-04-14T15:51:01.679Z,9.35
2019-04-14T15:53:37.774Z,9.48
2019-04-14T15:56:01.949Z,9.43
2019-04-14T15:58:41.954Z,10.30
2019-04-14T16:01:18.572Z,9.25
2019-04-14T16:04:01.258Z,9.13
2019-04-14T16:06:48.651Z,9.20
2019-04-14T16:09:25.351Z,9.58
2019-04-14T16:11:56.238Z,9.38
2019-04-14T16:14:43.553Z,9.33
2019-04-14T16:17:33.890Z,9.40
2019-04-14T16:20:05.587Z,8.23
2019-04-14T16:22:34.873Z,7.83
2019-04-14T16:25:05.821Z,8.73
2019-04-14T16:27:42.666Z,8.28
2019-04-14T16:30:16.816Z,8.13
2019-04-14T16:32:47.735Z,8.80
2019-04-14T16:35:18.665Z,10.23
2019-04-14T16:37:47.939Z,7.95
2019-04-14T16:40:17.528Z,10.10
2019-04-14T16:42:46.819Z,10.65
2019-04-14T16:45:16.190Z,8.60
2019-04-14T16:47:45.709Z,10.20
2019-04-14T16:50:15.001Z,10.03
2019-04-14T16:52:45.933Z,10.72
2019-04-14T16:55:16.866Z,9.70
2019-04-14T16:57:50.495Z,11.85
2019-04-14T17:00:21.776Z,12.23
2019-04-14T17:02:52.467Z,11.35
2019-04-14T17:05:21.755Z,10.98
2019-04-14T17:07:53.477Z,10.75
2019-04-14T17:10:22.316Z,11.00
2019-04-14T17:12:51.635Z,11.95
2019-04-14T17:15:41.159Z,10.68
2019-04-14T17:18:14.647Z,11.93
2019-04-14T17:20:57.595Z,11.28
2019-04-14T17:23:34.381Z,9.63
2019-04-14T17:26:11.084Z,10.35
2019-04-14T17:28:44.953Z,11.03
2019-04-14T17:31:21.797Z,9.83
2019-04-14T17:33:55.475Z,10.78
2019-04-14T17:36:26.430Z,10.95
2019-04-14T17:38:57.340Z,9.55
2019-04-14T17:41:36.971Z,11.53
2019-04-14T17:44:13.887Z,11.45
2019-04-14T17:46:45.125Z,11.57
2019-04-14T17:49:28.021Z,10.05
2019-04-14T17:52:15.178Z,10.58
2019-04-14T17:54:49.043Z,10.15
2019-04-14T17:57:35.317Z,10.63
2019-04-14T18:00:25.709Z,9.28
2019-04-14T18:02:56.642Z,10.18
2019-04-14T18:05:30.565Z,10.25
2019-04-14T18:08:01.478Z,9.45
2019-04-14T18:10:35.518Z,9.05
2019-04-14T18:13:22.999Z,9.95
2019-04-14T18:16:00.047Z,8.33
2019-04-14T18:18:39.871Z,10.03
2019-04-14T18:21:10.047Z,9.93
2019-04-14T18:23:39.352Z,10.35
2019-04-14T18:26:09.196Z,9.50
2019-04-14T18:28:41.761Z,8.65
2019-04-14T18:31:21.547Z,10.28
2019-04-14T18:34:12.346Z,10.75
2019-04-14T18:37:01.667Z,9.60
2019-04-14T18:39:50.462Z,9.13
2019-04-14T18:42:24.103Z,10.32
2019-04-14T18:44:55.048Z,12.13
2019-04-14T18:47:34.904Z,11.90
2019-04-14T18:50:06.811Z,12.75
2019-04-14T18:52:46.916Z,12.88
2019-04-14T18:55:34.622Z,13.78
2019-04-14T18:58:14.576Z,13.68
2019-04-14T19:00:54.835Z,12.78
2019-04-14T19:03:24.440Z,14.10
2019-04-14T19:05:53.735Z,14.80
2019-04-14T19:08:23.048Z,14.00
2019-04-14T19:11:10.564Z,14.25
2019-04-14T19:13:41.528Z,14.30
2019-04-14T19:16:12.546Z,13.90
2019-04-14T19:18:43.898Z,13.88
2019-04-14T19:21:14.919Z,13.70
2019-04-14T19:23:46.447Z,13.60
2019-04-14T19:26:15.489Z,12.60
2019-04-14T19:28:44.841Z,14.05
2019-04-14T19:31:14.602Z,12.35
2019-04-14T19:33:43.915Z,13.22
2019-04-14T19:36:13.218Z,13.60
2019-04-14T19:38:42.690Z,12.35
2019-04-14T19:41:12.040Z,12.73
2019-04-14T19:43:41.383Z,11.90
2019-04-14T19:46:10.669Z,10.13
2019-04-14T19:48:40.046Z,8.90
2019-04-14T19:51:09.347Z,7.72
2019-04-14T19:53:38.919Z,7.97
2019-04-14T19:56:08.532Z,7.28
2019-04-14T19:58:37.807Z,6.58
2019-04-14T20:01:07.391Z,5.85
2019-04-14T20:03:36.771Z,6.00
2019-04-14T20:06:06.430Z,4.50
2019-04-14T20:08:35.727Z,3.80
2019-04-14T20:11:05.134Z,4.40
2019-04-14T20:13:36.134Z,4.58
2019-04-14T20:16:19.011Z,4.85
2019-04-14T20:18:52.882Z,4.70
2019-04-14T20:21:40.123Z,4.47
2019-04-14T20:24:18.520Z,4.75
2019-04-14T20:26:49.493Z,4.75
2019-04-14T20:29:23.539Z,3.90
2019-04-14T20:31:54.814Z,4.78
2019-04-14T20:34:24.112Z,4.62
2019-04-14T20:36:53.401Z,5.22
2019-04-14T20:39:24.067Z,3.83
2019-04-14T20:41:53.598Z,4.47
2019-04-14T20:44:22.866Z,4.15
2019-04-14T20:46:52.434Z,4.15
2019-04-14T20:49:21.699Z,3.60
2019-04-14T20:51:51.308Z,4.12
2019-04-14T20:54:20.578Z,4.12
2019-04-14T20:56:49.867Z,4.50
2019-04-14T20:59:19.411Z,4.58
2019-04-14T21:01:50.350Z,4.47
2019-04-14T21:04:23.958Z,4.12
2019-04-14T21:07:07.284Z,5.00
2019-04-14T21:09:41.138Z,4.78
2019-04-14T21:12:17.978Z,4.15
2019-04-14T21:15:00.866Z,3.80
2019-04-14T21:17:41.023Z,5.22
2019-04-14T21:20:27.446Z,4.70
2019-04-14T21:22:58.359Z,4.70
2019-04-14T21:25:29.288Z,4.55
2019-04-14T21:28:09.206Z,5.05
2019-04-14T21:30:42.823Z,5.30
2019-04-14T21:33:22.580Z,5.08
2019-04-14T21:35:53.566Z,5.20
2019-04-14T21:38:27.455Z,5.03
2019-04-14T21:40:58.378Z,5.03
2019-04-14T21:43:27.910Z,4.90
2019-04-14T21:45:57.414Z,5.30
2019-04-14T21:48:26.717Z,6.28
2019-04-14T21:50:55.983Z,6.40
2019-04-14T21:53:25.522Z,5.15
2019-04-14T21:55:54.791Z,6.25
2019-04-14T21:58:28.599Z,6.58
2019-04-14T22:01:36.931Z,6.12
2019-04-14T22:04:16.918Z,5.62
2019-04-14T22:06:50.638Z,6.00
2019-04-14T22:09:30.542Z,6.55
2019-04-14T22:12:00.800Z,6.25
2019-04-14T22:14:30.075Z,6.83
2019-04-14T22:16:59.692Z,7.12
2019-04-14T22:19:29.323Z,5.60
2019-04-14T22:21:58.623Z,6.00
2019-04-14T22:24:27.896Z,7.05
2019-04-14T22:26:57.174Z,6.25
2019-04-14T22:29:26.503Z,6.65
2019-04-14T22:31:55.882Z,7.25
2019-04-14T22:34:25.167Z,7.60
2019-04-14T22:36:54.458Z,7.75
2019-04-14T22:39:23.883Z,7.03
2019-04-14T22:41:53.150Z,7.35
2019-04-14T22:44:22.461Z,7.92
2019-04-14T22:46:51.731Z,6.65
2019-04-14T22:49:21.072Z,7.60
2019-04-14T22:51:50.340Z,7.62
2019-04-14T22:54:19.916Z,7.62
2019-04-14T22:56:49.515Z,8.18
2019-04-14T22:59:18.813Z,7.33
2019-04-14T23:01:58.166Z,6.90
2019-04-14T23:04:31.546Z,7.83
2019-04-14T23:07:18.706Z,7.97
2019-04-14T23:09:49.653Z,7.42
2019-04-14T23:12:26.450Z,8.28
2019-04-14T23:14:57.466Z,8.63
2019-04-14T23:17:34.618Z,8.80
2019-04-14T23:20:16.899Z,10.95
2019-04-14T23:22:59.854Z,8.45
2019-04-14T23:25:29.138Z,9.85
2019-04-14T23:27:58.438Z,8.70
2019-04-14T23:30:27.778Z,8.08
2019-04-14T23:32:57.350Z,9.08
2019-04-14T23:35:26.627Z,9.70
2019-04-14T23:37:55.914Z,9.48
2019-04-14T23:40:25.219Z,10.05
2019-04-14T23:42:54.502Z,8.55
2019-04-14T23:45:23.804Z,9.60
2019-04-14T23:47:53.076Z,9.53
2019-04-14T23:50:22.370Z,9.53
2019-04-14T23:52:51.647Z,9.03
2019-04-14T23:55:20.926Z,8.23
2019-04-14T23:57:50.227Z,10.15
